Time;durP1;ratioP1;P1;durP2;ratioP2;P2;SDS_P1;SDS_P2;PMS_P1;PMS_P2;Temp;Humidity;BMP_temperature;BMP_pressure;BME280_temperature;BME280_humidity;BME280_pressure;Samples;Min_cycle;Max_cycle;Signal;HPM_P1;HPM_P2
2021/05/30 00:00:37;;;;;;;11.85;9.13;;;11.50;99.90;;;;;;4997703;28;20466;-76
2021/05/30 00:03:07;;;;;;;12.82;9.85;;;11.50;99.90;;;;;;4993453;28;20129;-76
2021/05/30 00:05:33;;;;;;;13.10;9.65;;;11.50;99.90;;;;;;4989189;28;20034;-76
2021/05/30 00:08:01;;;;;;;12.75;9.63;;;11.40;99.90;;;;;;4990009;28;20105;-76
2021/05/30 00:10:30;;;;;;;12.73;9.27;;;11.40;99.90;;;;;;4996926;28;20037;-76
2021/05/30 00:12:57;;;;;;;11.95;9.25;;;11.40;99.90;;;;;;4980505;28;20152;-76
2021/05/30 00:15:25;;;;;;;12.82;9.50;;;11.40;99.90;;;;;;4978649;28;20038;-75
2021/05/30 00:17:51;;;;;;;13.38;9.82;;;11.40;99.90;;;;;;4979582;28;20033;-76
2021/05/30 00:20:19;;;;;;;13.10;9.30;;;11.40;99.90;;;;;;4977410;28;20054;-76
2021/05/30 00:22:47;;;;;;;12.68;9.10;;;11.40;99.90;;;;;;4979054;28;20034;-76
2021/05/30 00:25:15;;;;;;;12.77;9.45;;;11.30;99.90;;;;;;4979007;28;20038;-75
2021/05/30 00:27:43;;;;;;;13.70;9.77;;;11.30;99.90;;;;;;4989167;28;20081;-76
2021/05/30 00:30:09;;;;;;;13.25;9.35;;;11.30;99.90;;;;;;4979781;28;20054;-76
2021/05/30 00:32:37;;;;;;;15.00;9.88;;;11.30;99.90;;;;;;4978600;28;20027;-76
2021/05/30 00:35:05;;;;;;;13.63;9.23;;;11.20;99.90;;;;;;4978476;28;20392;-75
2021/05/30 00:37:31;;;;;;;14.55;10.20;;;11.20;99.90;;;;;;4979131;28;20584;-75
2021/05/30 00:39:59;;;;;;;12.10;8.77;;;11.20;99.90;;;;;;4979439;28;20108;-76
2021/05/30 00:42:27;;;;;;;12.52;9.55;;;11.20;99.90;;;;;;4979378;28;20072;-75
2021/05/30 00:44:55;;;;;;;11.95;9.55;;;11.20;99.90;;;;;;4977923;28;20050;-75
2021/05/30 00:47:23;;;;;;;14.73;9.50;;;11.10;99.90;;;;;;4989069;28;20041;-76
2021/05/30 00:49:51;;;;;;;12.38;8.80;;;11.10;99.90;;;;;;4997653;28;20026;-76
2021/05/30 00:52:16;;;;;;;14.20;8.90;;;11.10;99.90;;;;;;4992021;28;20077;-75
2021/05/30 00:54:44;;;;;;;13.95;9.13;;;11.10;99.90;;;;;;4990344;28;20168;-76
2021/05/30 00:57:13;;;;;;;11.98;8.48;;;11.00;99.90;;;;;;4989024;28;20136;-76
2021/05/30 00:59:41;;;;;;;12.35;8.93;;;11.00;99.90;;;;;;4989347;28;20085;-76
2021/05/30 01:02:09;;;;;;;11.02;7.88;;;11.00;99.90;;;;;;4993967;28;20086;-76
2021/05/30 01:04:35;;;;;;;12.02;8.48;;;11.00;99.90;;;;;;4978192;28;20368;-76
2021/05/30 01:07:03;;;;;;;10.60;7.88;;;11.00;99.90;;;;;;4977899;28;20119;-75
2021/05/30 01:09:32;;;;;;;10.98;7.88;;;11.00;99.90;;;;;;4980264;28;20031;-75
2021/05/30 01:12:00;;;;;;;11.82;8.77;;;11.00;99.90;;;;;;4979004;28;20030;-76
2021/05/30 01:14:28;;;;;;;10.77;8.00;;;10.90;99.90;;;;;;4991981;28;20049;-76
2021/05/30 01:16:54;;;;;;;10.85;7.65;;;10.90;99.90;;;;;;4991607;28;20034;-76
2021/05/30 01:19:22;;;;;;;12.95;8.13;;;10.90;99.90;;;;;;4993400;28;20029;-76
2021/05/30 01:21:50;;;;;;;13.05;7.82;;;10.80;99.90;;;;;;4972118;28;20042;-76
2021/05/30 01:24:18;;;;;;;10.07;7.80;;;10.80;99.90;;;;;;4978651;28;20026;-76
2021/05/30 01:26:44;;;;;;;9.43;7.10;;;10.80;99.90;;;;;;4977171;28;20037;-76
2021/05/30 01:29:11;;;;;;;12.70;8.23;;;10.70;99.90;;;;;;4978453;28;20046;-76
2021/05/30 01:31:40;;;;;;;11.40;7.03;;;10.70;99.90;;;;;;4977614;28;20066;-76
2021/05/30 01:34:06;;;;;;;11.32;7.85;;;10.70;99.90;;;;;;4976317;28;20043;-76
2021/05/30 01:36:32;;;;;;;12.52;7.45;;;10.70;99.90;;;;;;4978022;28;20069;-76
2021/05/30 01:38:59;;;;;;;10.93;7.57;;;10.60;99.90;;;;;;4989366;28;20474;-76
2021/05/30 01:41:25;;;;;;;11.90;7.75;;;10.60;99.90;;;;;;4978276;28;20041;-76
2021/05/30 01:43:53;;;;;;;12.02;7.70;;;10.60;99.90;;;;;;4992854;28;20035;-75
2021/05/30 01:46:19;;;;;;;11.32;8.55;;;10.60;99.90;;;;;;4988628;28;20423;-76
2021/05/30 01:48:44;;;;;;;12.38;7.93;;;10.60;99.90;;;;;;4977046;28;20034;-76
2021/05/30 01:51:12;;;;;;;11.00;7.50;;;10.60;99.90;;;;;;4976915;28;20042;-75
2021/05/30 01:53:46;;;;;;;10.15;7.63;;;10.60;99.90;;;;;;4992644;28;20039;-76
2021/05/30 01:58:43;;;;;;;9.95;7.18;;;10.50;99.90;;;;;;4977227;28;20034;-76
2021/05/30 02:01:11;;;;;;;9.40;6.90;;;10.50;99.90;;;;;;4977539;28;20046;-75
2021/05/30 02:03:39;;;;;;;12.07;7.72;;;10.50;99.90;;;;;;4977008;28;20030;-76
2021/05/30 02:06:09;;;;;;;9.23;7.03;;;10.50;99.90;;;;;;4980035;28;20045;-76
2021/05/30 02:08:39;;;;;;;9.63;6.93;;;10.40;99.90;;;;;;4977276;28;20030;-75
2021/05/30 02:11:08;;;;;;;10.15;7.47;;;10.40;99.90;;;;;;4977337;28;20027;-76
2021/05/30 02:13:34;;;;;;;11.45;7.53;;;10.40;99.90;;;;;;4991693;28;20453;-76
2021/05/30 02:16:00;;;;;;;11.57;7.30;;;10.30;99.90;;;;;;4991892;28;20037;-76
2021/05/30 02:18:28;;;;;;;10.48;7.40;;;10.30;99.90;;;;;;4975328;28;20037;-76
2021/05/30 02:20:56;;;;;;;12.65;7.82;;;10.30;99.90;;;;;;4977109;28;20027;-76
2021/05/30 02:23:24;;;;;;;10.18;7.50;;;10.20;99.90;;;;;;4987536;28;20033;-76
2021/05/30 02:25:52;;;;;;;10.40;7.40;;;10.20;99.90;;;;;;4986887;28;20097;-75
2021/05/30 02:28:17;;;;;;;12.88;7.30;;;10.20;99.90;;;;;;4976719;28;20039;-76
2021/05/30 02:30:48;;;;;;;12.10;7.30;;;10.20;99.90;;;;;;4976478;28;20483;-76
2021/05/30 02:33:16;;;;;;;11.18;7.53;;;10.20;99.90;;;;;;4996996;28;20110;-76
2021/05/30 02:35:41;;;;;;;10.70;7.30;;;10.20;99.90;;;;;;4990238;28;20453;-76
2021/05/30 02:38:09;;;;;;;10.15;7.13;;;10.10;99.90;;;;;;4976949;28;20034;-76
2021/05/30 02:40:35;;;;;;;11.35;7.95;;;10.10;99.90;;;;;;4992024;28;21017;-76
2021/05/30 02:43:03;;;;;;;11.25;7.82;;;10.00;99.90;;;;;;4976990;28;20037;-76
2021/05/30 02:45:31;;;;;;;12.57;7.82;;;10.00;99.90;;;;;;4976080;28;20039;-76
2021/05/30 02:47:57;;;;;;;11.20;7.53;;;10.00;99.90;;;;;;4976922;28;20042;-76
2021/05/30 02:50:22;;;;;;;11.20;7.28;;;9.90;99.90;;;;;;4987387;28;20045;-76
2021/05/30 02:52:50;;;;;;;10.10;7.57;;;9.90;99.90;;;;;;4976147;28;20051;-76
2021/05/30 02:55:20;;;;;;;11.23;7.70;;;9.80;99.90;;;;;;4976376;28;20037;-76
2021/05/30 02:57:46;;;;;;;11.82;7.50;;;9.90;99.90;;;;;;4975869;28;20507;-76
2021/05/30 03:00:12;;;;;;;11.30;7.70;;;9.80;99.90;;;;;;4978562;28;20031;-76
2021/05/30 03:02:37;;;;;;;12.13;8.15;;;9.80;99.90;;;;;;4975183;28;20062;-76
2021/05/30 03:05:04;;;;;;;10.80;7.35;;;9.80;99.90;;;;;;4976629;28;20550;-77
2021/05/30 03:07:32;;;;;;;10.75;7.68;;;9.80;99.90;;;;;;4976589;28;20039;-76
2021/05/30 03:09:58;;;;;;;10.85;7.95;;;9.70;99.90;;;;;;4990214;28;20042;-77
2021/05/30 03:12:24;;;;;;;9.73;7.25;;;9.70;99.90;;;;;;4976152;28;20041;-77
2021/05/30 03:14:50;;;;;;;11.23;7.72;;;9.70;99.90;;;;;;4975101;28;20035;-76
2021/05/30 03:17:15;;;;;;;13.18;7.82;;;9.70;99.90;;;;;;4987381;28;20282;-76
2021/05/30 03:19:41;;;;;;;9.85;7.20;;;9.70;99.90;;;;;;4975723;28;20038;-75
2021/05/30 03:22:07;;;;;;;11.00;7.18;;;9.70;99.90;;;;;;4976488;28;20586;-76
2021/05/30 03:24:33;;;;;;;11.52;8.02;;;9.70;99.90;;;;;;4986844;28;20444;-78
2021/05/30 03:26:58;;;;;;;12.70;8.10;;;9.70;99.90;;;;;;4976416;28;20045;-76
2021/05/30 03:29:24;;;;;;;10.93;7.68;;;9.60;99.90;;;;;;4975305;28;20045;-77
2021/05/30 03:31:50;;;;;;;10.82;7.95;;;9.60;99.90;;;;;;4975576;28;20035;-76
2021/05/30 03:34:15;;;;;;;12.05;8.10;;;9.60;99.90;;;;;;4975579;28;20106;-76
2021/05/30 03:36:46;;;;;;;11.82;7.90;;;9.60;99.90;;;;;;4976036;28;20073;-76
2021/05/30 03:39:12;;;;;;;11.38;7.60;;;9.50;99.90;;;;;;4976000;28;20034;-76
2021/05/30 03:41:40;;;;;;;11.05;8.32;;;9.50;99.90;;;;;;4974906;28;21759;-76
2021/05/30 03:44:07;;;;;;;12.27;8.55;;;9.50;99.90;;;;;;4985674;28;20123;-76
2021/05/30 03:46:35;;;;;;;13.68;8.63;;;9.50;99.90;;;;;;4974781;28;20168;-76
2021/05/30 03:49:01;;;;;;;12.55;8.20;;;9.50;99.90;;;;;;4975829;28;20035;-76
2021/05/30 03:51:27;;;;;;;12.45;8.15;;;9.50;99.90;;;;;;4975268;28;20472;-76
2021/05/30 03:53:55;;;;;;;11.73;8.20;;;9.50;99.90;;;;;;4974268;28;20027;-76
2021/05/30 03:56:21;;;;;;;12.82;7.88;;;9.50;99.90;;;;;;4986375;28;20108;-77
2021/05/30 03:58:46;;;;;;;12.32;8.07;;;9.40;99.90;;;;;;4986996;28;20337;-76
2021/05/30 04:01:14;;;;;;;11.55;8.25;;;9.40;99.90;;;;;;4985847;28;20145;-76
2021/05/30 04:03:40;;;;;;;10.85;7.53;;;9.40;99.90;;;;;;4975504;28;20045;-76
2021/05/30 04:06:08;;;;;;;12.30;7.90;;;9.40;99.90;;;;;;4988511;28;20598;-76
2021/05/30 04:08:36;;;;;;;12.45;8.25;;;9.40;99.90;;;;;;5006946;28;20104;-76
2021/05/30 04:11:01;;;;;;;11.50;7.80;;;9.40;99.90;;;;;;4987091;28;20512;-76
2021/05/30 04:13:27;;;;;;;11.90;7.85;;;9.40;99.90;;;;;;4974353;28;20031;-77
2021/05/30 04:15:55;;;;;;;13.13;8.18;;;9.40;99.90;;;;;;4974482;28;20101;-77
2021/05/30 04:18:24;;;;;;;10.60;6.97;;;9.40;99.90;;;;;;4969492;28;20054;-76
2021/05/30 04:20:50;;;;;;;11.93;7.40;;;9.40;99.90;;;;;;4973807;28;20034;-77
2021/05/30 04:23:18;;;;;;;12.73;8.05;;;9.50;99.90;;;;;;4974708;28;20030;-76
2021/05/30 04:25:44;;;;;;;10.88;7.40;;;9.40;99.90;;;;;;4974325;28;20026;-76
2021/05/30 04:28:12;;;;;;;11.65;7.53;;;9.50;99.90;;;;;;4974949;28;20968;-76
2021/05/30 04:30:41;;;;;;;11.15;7.28;;;9.50;99.90;;;;;;4993894;28;20345;-76
2021/05/30 04:33:09;;;;;;;10.10;7.50;;;9.40;99.90;;;;;;4992617;28;20516;-76
2021/05/30 04:35:34;;;;;;;11.52;7.47;;;9.50;99.90;;;;;;4988366;28;20031;-76
2021/05/30 04:38:00;;;;;;;13.18;8.30;;;9.50;99.90;;;;;;4990586;28;20123;-77
2021/05/30 04:40:28;;;;;;;10.23;7.40;;;9.50;99.90;;;;;;4990730;28;20470;-76
2021/05/30 04:42:53;;;;;;;10.60;7.28;;;9.50;99.90;;;;;;4978873;28;20407;-77
2021/05/30 04:45:19;;;;;;;11.30;7.60;;;9.50;99.90;;;;;;4974454;28;20031;-77
2021/05/30 04:47:47;;;;;;;11.13;7.20;;;9.60;99.90;;;;;;4974552;28;20038;-76
2021/05/30 04:50:13;;;;;;;10.75;7.03;;;9.60;99.90;;;;;;4974994;28;20719;-76
2021/05/30 04:52:42;;;;;;;10.02;6.88;;;9.60;99.90;;;;;;4974030;28;20040;-76
2021/05/30 04:55:11;;;;;;;10.75;7.22;;;9.60;99.90;;;;;;4978521;28;20487;-78
2021/05/30 04:57:44;;;;;;;11.75;7.28;;;9.70;99.90;;;;;;4978639;28;20039;-77
2021/05/30 05:00:12;;;;;;;12.30;7.63;;;9.70;99.90;;;;;;4966387;28;20034;-77
2021/05/30 05:02:38;;;;;;;10.95;7.72;;;9.70;99.90;;;;;;4977732;28;20046;-77
2021/05/30 05:05:05;;;;;;;10.82;7.65;;;9.80;99.90;;;;;;4989512;28;20137;-77
2021/05/30 05:07:31;;;;;;;10.75;7.43;;;9.80;99.90;;;;;;4993232;28;20066;-77
2021/05/30 05:09:59;;;;;;;11.13;7.53;;;9.80;99.90;;;;;;4978106;28;20456;-77
2021/05/30 05:12:24;;;;;;;10.68;7.60;;;9.80;99.90;;;;;;4984915;28;20173;-77
2021/05/30 05:14:50;;;;;;;11.35;8.10;;;9.90;99.90;;;;;;4979776;28;20473;-77
2021/05/30 05:17:15;;;;;;;12.23;8.00;;;9.90;99.90;;;;;;4989161;28;20153;-77
2021/05/30 05:19:41;;;;;;;12.50;8.20;;;9.90;99.90;;;;;;4977487;28;20078;-77
2021/05/30 05:22:09;;;;;;;11.60;7.93;;;10.00;99.90;;;;;;4978062;28;20083;-77
2021/05/30 05:24:35;;;;;;;12.82;8.65;;;10.00;99.90;;;;;;4979704;28;22008;-77
2021/05/30 05:27:00;;;;;;;11.95;8.27;;;10.10;99.90;;;;;;4977895;28;20035;-77
2021/05/30 05:29:26;;;;;;;12.32;8.88;;;10.10;99.90;;;;;;4988687;28;20114;-77
2021/05/30 05:31:53;;;;;;;12.95;8.10;;;10.10;99.90;;;;;;4978139;28;20026;-77
2021/05/30 05:34:19;;;;;;;12.30;8.30;;;10.20;99.90;;;;;;4977979;28;20089;-77
2021/05/30 05:36:45;;;;;;;13.95;8.70;;;10.20;99.90;;;;;;4977480;28;20039;-77
2021/05/30 05:39:11;;;;;;;11.38;8.38;;;10.30;99.90;;;;;;4984991;28;20030;-77
2021/05/30 05:41:36;;;;;;;12.25;8.50;;;10.40;99.90;;;;;;4984585;28;20033;-77
2021/05/30 05:44:04;;;;;;;12.30;8.15;;;10.40;99.90;;;;;;4977424;28;20092;-77
2021/05/30 05:46:30;;;;;;;13.90;8.60;;;10.40;99.90;;;;;;4977752;28;20041;-77
2021/05/30 05:48:55;;;;;;;15.15;9.13;;;10.50;99.90;;;;;;4976675;28;20023;-77
2021/05/30 05:51:23;;;;;;;12.48;9.20;;;10.50;99.90;;;;;;4977961;28;20197;-77
2021/05/30 05:53:49;;;;;;;13.60;8.98;;;10.50;99.90;;;;;;4977285;28;20461;-76
2021/05/30 05:56:17;;;;;;;11.50;8.27;;;10.60;99.90;;;;;;4978039;28;20043;-77
2021/05/30 05:58:43;;;;;;;12.77;8.98;;;10.60;99.90;;;;;;4976766;28;20023;-77
2021/05/30 06:01:12;;;;;;;12.88;8.98;;;10.70;99.90;;;;;;4980552;28;20408;-70
2021/05/30 06:03:40;;;;;;;12.70;8.30;;;10.80;99.90;;;;;;5000122;28;20038;-71
2021/05/30 06:06:11;;;;;;;13.00;9.05;;;10.80;99.90;;;;;;4989735;28;20616;-71
2021/05/30 06:08:36;;;;;;;13.10;9.00;;;10.80;99.90;;;;;;4977158;28;20467;-71
2021/05/30 06:11:04;;;;;;;14.15;9.50;;;10.90;99.90;;;;;;4976491;28;20026;-71
2021/05/30 06:13:32;;;;;;;14.23;9.15;;;10.90;99.90;;;;;;4980383;28;20043;-71
2021/05/30 06:15:58;;;;;;;11.63;8.48;;;11.00;99.90;;;;;;4994342;28;20037;-71
2021/05/30 06:18:23;;;;;;;11.27;8.07;;;11.00;99.90;;;;;;4985799;28;20038;-71
2021/05/30 06:20:49;;;;;;;12.20;8.15;;;11.00;99.90;;;;;;4980360;28;20076;-71
2021/05/30 06:23:15;;;;;;;12.15;8.38;;;11.10;99.90;;;;;;4981272;28;20034;-71
2021/05/30 06:25:44;;;;;;;11.77;8.13;;;11.10;99.90;;;;;;4987390;28;20448;-71
2021/05/30 06:28:09;;;;;;;12.30;8.20;;;11.20;99.90;;;;;;4988062;28;21241;-71
2021/05/30 06:30:40;;;;;;;11.50;7.72;;;11.20;99.90;;;;;;4987735;28;20045;-71
2021/05/30 06:33:08;;;;;;;10.48;7.90;;;11.30;99.90;;;;;;4990818;28;20096;-71
2021/05/30 06:35:39;;;;;;;10.93;7.68;;;11.30;99.90;;;;;;4981558;28;20039;-71
2021/05/30 06:38:05;;;;;;;11.20;7.75;;;11.40;99.90;;;;;;4977238;28;20031;-71
2021/05/30 06:40:31;;;;;;;10.95;7.50;;;11.40;99.90;;;;;;4976920;28;20037;-71
2021/05/30 06:42:56;;;;;;;11.65;7.78;;;11.50;99.90;;;;;;4987689;28;20026;-72
2021/05/30 06:45:22;;;;;;;10.45;7.50;;;11.50;99.90;;;;;;4981898;28;20113;-72
2021/05/30 06:47:48;;;;;;;11.15;7.88;;;11.60;99.90;;;;;;4986191;28;20035;-71
2021/05/30 06:50:16;;;;;;;10.57;7.50;;;11.60;99.90;;;;;;4987794;28;20034;-71
2021/05/30 06:52:41;;;;;;;11.45;7.88;;;11.70;99.90;;;;;;4991972;28;20181;-70
2021/05/30 06:55:10;;;;;;;10.82;8.18;;;11.80;99.90;;;;;;4992650;28;20035;-71
2021/05/30 06:57:35;;;;;;;11.48;7.82;;;11.80;99.90;;;;;;4975557;28;20042;-71
2021/05/30 07:00:04;;;;;;;9.80;7.10;;;11.90;99.90;;;;;;4970530;28;20091;-72
2021/05/30 07:02:32;;;;;;;10.70;7.47;;;12.00;99.90;;;;;;4982720;28;20082;-71
2021/05/30 07:04:58;;;;;;;9.95;7.25;;;12.00;99.90;;;;;;4980344;28;20034;-72
2021/05/30 07:07:24;;;;;;;10.18;7.47;;;12.10;99.90;;;;;;4976029;28;20041;-72
2021/05/30 07:09:49;;;;;;;9.77;7.22;;;12.10;99.90;;;;;;4981417;28;20033;-71
2021/05/30 07:12:17;;;;;;;10.07;7.55;;;12.20;99.90;;;;;;4997971;28;20041;-71
2021/05/30 07:14:46;;;;;;;9.60;7.10;;;12.30;99.90;;;;;;4994041;28;20040;-71
2021/05/30 07:17:12;;;;;;;10.90;6.93;;;12.40;99.90;;;;;;4970596;28;20084;-72
2021/05/30 07:19:38;;;;;;;10.20;7.00;;;12.40;99.90;;;;;;4979651;28;20562;-71
2021/05/30 07:22:04;;;;;;;9.32;6.80;;;12.50;99.90;;;;;;4991017;28;20037;-71
2021/05/30 07:24:30;;;;;;;9.95;6.90;;;12.60;99.90;;;;;;4993248;28;20492;-71
2021/05/30 07:26:55;;;;;;;10.35;6.55;;;12.70;99.90;;;;;;4984907;28;20045;-71
2021/05/30 07:29:23;;;;;;;9.60;7.13;;;12.80;99.90;;;;;;4974807;28;20035;-71
2021/05/30 07:31:51;;;;;;;10.25;6.75;;;12.80;99.90;;;;;;4975310;28;20141;-71
2021/05/30 07:34:17;;;;;;;11.23;7.35;;;13.00;99.90;;;;;;4984648;28;20048;-71
2021/05/30 07:36:43;;;;;;;9.45;7.07;;;13.00;99.90;;;;;;4990041;28;20022;-71
2021/05/30 07:39:11;;;;;;;8.13;6.20;;;13.10;99.90;;;;;;4991261;28;20027;-71
2021/05/30 07:41:37;;;;;;;8.60;6.28;;;13.30;99.90;;;;;;4995460;28;20046;-71
2021/05/30 07:44:03;;;;;;;9.57;6.55;;;13.50;99.90;;;;;;4994398;28;20492;-71
2021/05/30 07:46:31;;;;;;;9.90;6.70;;;13.70;99.90;;;;;;4994454;28;20093;-71
2021/05/30 07:48:56;;;;;;;9.63;6.30;;;13.90;99.90;;;;;;4991900;28;20033;-71
2021/05/30 07:51:26;;;;;;;10.15;6.70;;;14.20;99.90;;;;;;4997141;28;20880;-71
2021/05/30 07:53:52;;;;;;;8.40;6.15;;;14.40;99.90;;;;;;4991186;28;20471;-71
2021/05/30 07:56:19;;;;;;;9.23;5.90;;;14.70;99.90;;;;;;4991326;28;20031;-69
2021/05/30 07:58:48;;;;;;;10.10;6.10;;;14.90;99.90;;;;;;4985578;28;20027;-70
2021/05/30 08:01:13;;;;;;;8.80;5.90;;;15.20;99.90;;;;;;4974927;28;20043;-69
2021/05/30 08:03:39;;;;;;;9.15;5.88;;;15.40;99.90;;;;;;4975046;28;20046;-69
2021/05/30 08:06:07;;;;;;;8.95;5.53;;;15.70;99.90;;;;;;4975611;28;20026;-70
2021/05/30 08:08:33;;;;;;;7.25;5.15;;;15.90;99.90;;;;;;4990989;28;20030;-69
2021/05/30 08:10:58;;;;;;;35.72;25.17;;;16.10;99.90;;;;;;4989499;28;20053;-70
2021/05/30 08:13:26;;;;;;;11.65;8.38;;;16.30;99.90;;;;;;4975539;28;20468;-69
2021/05/30 08:15:52;;;;;;;8.63;5.80;;;16.50;99.90;;;;;;4994805;28;20047;-69
2021/05/30 08:18:20;;;;;;;9.95;5.55;;;16.70;99.70;;;;;;4988330;28;20035;-71
2021/05/30 08:20:45;;;;;;;8.70;5.88;;;16.80;99.30;;;;;;4974679;28;20416;-69
2021/05/30 08:23:11;;;;;;;7.82;5.05;;;17.00;99.90;;;;;;4975393;28;20023;-70
2021/05/30 08:25:39;;;;;;;10.43;7.75;;;17.10;98.40;;;;;;4993718;28;20015;-70
2021/05/30 08:28:10;;;;;;;16.40;11.45;;;17.20;94.70;;;;;;4993302;28;20101;-69
2021/05/30 08:30:36;;;;;;;8.45;5.70;;;17.50;99.90;;;;;;4993479;28;20041;-69
2021/05/30 08:33:02;;;;;;;7.05;5.25;;;17.60;98.10;;;;;;5000056;28;20026;-70
2021/05/30 08:35:35;;;;;;;7.88;5.32;;;17.70;94.60;;;;;;4988830;28;20117;-70
2021/05/30 08:38:03;;;;;;;6.50;5.05;;;17.80;93.10;;;;;;5010443;28;20117;-71
2021/05/30 08:40:29;;;;;;;7.40;5.15;;;17.90;94.50;;;;;;4991666;28;20019;-71
2021/05/30 08:42:55;;;;;;;7.38;5.00;;;18.10;94.50;;;;;;4991888;28;20034;-71
2021/05/30 08:45:24;;;;;;;9.32;5.38;;;18.20;93.10;;;;;;4989686;28;20063;-72
2021/05/30 08:47:49;;;;;;;8.57;4.93;;;18.40;90.90;;;;;;4993979;28;20080;-72
2021/05/30 08:50:15;;;;;;;6.50;4.82;;;18.40;88.90;;;;;;4992840;28;20115;-72
2021/05/30 08:52:41;;;;;;;6.63;4.70;;;18.60;90.70;;;;;;4989425;28;20341;-72
2021/05/30 08:55:07;;;;;;;6.90;4.90;;;18.60;84.70;;;;;;4991190;28;20439;-71
2021/05/30 08:57:33;;;;;;;5.72;4.30;;;18.70;90.00;;;;;;4988150;28;21002;-71
2021/05/30 08:59:59;;;;;;;7.07;4.72;;;18.90;84.50;;;;;;4983325;28;20053;-71
2021/05/30 09:02:24;;;;;;;7.10;4.85;;;18.90;81.20;;;;;;4985120;28;20061;-71
2021/05/30 09:04:54;;;;;;;7.45;4.70;;;19.00;85.30;;;;;;4998009;28;20108;-72
2021/05/30 09:07:43;;;;;;;6.50;4.97;;;19.10;81.20;;;;;;5000272;28;20113;-72
2021/05/30 09:10:14;;;;;;;7.25;5.03;;;19.20;83.60;;;;;;4984004;28;20038;-72
2021/05/30 09:12:41;;;;;;;7.47;5.00;;;19.20;80.50;;;;;;4999469;28;20045;-72
2021/05/30 09:15:22;;;;;;;6.85;4.65;;;19.30;81.70;;;;;;4998727;28;20030;-72
2021/05/30 09:17:48;;;;;;;6.28;4.63;;;19.40;85.40;;;;;;4995791;28;20109;-72
2021/05/30 09:20:14;;;;;;;6.22;4.40;;;19.40;80.80;;;;;;4981807;28;20180;-72
2021/05/30 09:22:43;;;;;;;7.53;4.10;;;19.40;77.70;;;;;;4995012;28;20053;-72
2021/05/30 09:25:18;;;;;;;6.30;4.18;;;19.50;75.20;;;;;;4992836;28;20010;-73
2021/05/30 09:27:53;;;;;;;5.93;4.60;;;19.50;79.20;;;;;;4994912;28;20048;-72
2021/05/30 09:30:34;;;;;;;6.53;4.40;;;19.50;80.60;;;;;;4996198;28;20026;-73
2021/05/30 09:33:04;;;;;;;5.63;4.10;;;19.60;78.30;;;;;;4995164;28;20030;-73
2021/05/30 09:35:51;;;;;;;6.50;4.40;;;19.60;76.40;;;;;;4998986;28;20030;-72
2021/05/30 09:38:18;;;;;;;7.97;4.72;;;19.70;76.70;;;;;;4994461;28;20037;-73
2021/05/30 09:40:51;;;;;;;5.53;4.18;;;19.70;77.00;;;;;;4989912;28;20105;-71
2021/05/30 09:43:21;;;;;;;7.22;4.20;;;19.70;71.40;;;;;;4983953;28;20026;-72
2021/05/30 09:46:00;;;;;;;6.15;4.50;;;19.80;75.30;;;;;;4998040;28;20031;-73
2021/05/30 09:48:31;;;;;;;8.00;5.15;;;19.80;69.90;;;;;;4982069;28;20724;-71
2021/05/30 09:51:05;;;;;;;7.95;4.45;;;19.90;70.30;;;;;;4994550;28;20133;-71
2021/05/30 09:53:50;;;;;;;6.60;4.25;;;19.90;72.70;;;;;;4996151;28;20499;-72
2021/05/30 09:56:38;;;;;;;5.38;4.18;;;20.00;74.30;;;;;;4997189;28;20544;-72
2021/05/30 09:59:14;;;;;;;6.40;4.25;;;20.10;78.80;;;;;;4995030;28;20014;-71
2021/05/30 10:01:49;;;;;;;5.80;4.00;;;20.00;65.40;;;;;;4997360;28;20045;-71
2021/05/30 10:04:15;;;;;;;5.82;3.88;;;20.20;71.00;;;;;;4994151;28;20030;-72
2021/05/30 10:06:44;;;;;;;6.90;4.20;;;20.20;72.50;;;;;;4991854;28;20030;-72
2021/05/30 10:09:12;;;;;;;5.43;3.88;;;20.20;74.70;;;;;;4992499;28;20029;-72
2021/05/30 10:11:38;;;;;;;6.93;4.20;;;20.20;73.00;;;;;;4999198;28;20084;-72
2021/05/30 10:14:07;;;;;;;5.43;3.70;;;20.30;70.20;;;;;;4992552;28;20105;-72
2021/05/30 10:16:33;;;;;;;5.85;3.67;;;20.30;71.10;;;;;;4992495;28;20037;-71
2021/05/30 10:19:23;;;;;;;4.85;3.40;;;20.30;70.00;;;;;;4993616;28;20026;-72
2021/05/30 10:21:53;;;;;;;4.93;3.30;;;20.40;67.50;;;;;;4992179;28;20026;-72
2021/05/30 10:24:20;;;;;;;5.20;3.40;;;20.40;67.20;;;;;;4993958;28;20486;-72
2021/05/30 10:26:46;;;;;;;5.82;3.80;;;20.40;71.40;;;;;;4979552;28;20050;-72
2021/05/30 10:29:14;;;;;;;5.63;3.80;;;20.50;69.20;;;;;;4982637;28;20022;-72
2021/05/30 10:31:41;;;;;;;6.45;3.85;;;20.50;71.00;;;;;;4992910;28;20033;-72
2021/05/30 10:34:10;;;;;;;5.45;3.75;;;20.60;71.00;;;;;;4996881;28;20019;-72
2021/05/30 10:36:40;;;;;;;4.97;3.38;;;20.70;72.40;;;;;;4990926;28;20519;-72
2021/05/30 10:39:31;;;;;;;5.90;3.40;;;20.90;70.20;;;;;;4995338;28;20023;-72
2021/05/30 10:42:07;;;;;;;5.65;3.20;;;21.00;67.20;;;;;;4992922;28;20109;-72
2021/05/30 10:44:59;;;;;;;8.05;3.33;;;21.10;67.30;;;;;;4990431;28;21067;-72
2021/05/30 10:47:52;;;;;;;4.78;3.15;;;21.20;61.40;;;;;;4992181;28;20566;-71
2021/05/30 10:50:19;;;;;;;5.30;3.30;;;21.30;65.80;;;;;;4969092;28;20046;-72
2021/05/30 10:52:46;;;;;;;5.97;3.58;;;21.20;64.70;;;;;;4994166;28;20048;-72
2021/05/30 10:55:12;;;;;;;6.20;3.90;;;21.30;65.20;;;;;;4997141;28;20105;-72
2021/05/30 10:57:50;;;;;;;5.38;3.70;;;21.30;65.90;;;;;;4991626;28;20106;-72
2021/05/30 11:00:19;;;;;;;5.28;3.80;;;21.30;64.70;;;;;;4989556;28;20403;-72
2021/05/30 11:03:03;;;;;;;6.13;3.78;;;21.10;63.80;;;;;;4992265;28;20046;-72
2021/05/30 11:05:41;;;;;;;5.80;4.00;;;21.00;63.90;;;;;;4989777;28;20018;-72
2021/05/30 11:08:09;;;;;;;5.38;3.80;;;21.00;65.80;;;;;;4989270;28;20035;-72
2021/05/30 11:10:39;;;;;;;7.38;3.92;;;20.90;64.70;;;;;;4992929;28;20484;-72
2021/05/30 11:13:14;;;;;;;5.80;4.07;;;20.90;65.70;;;;;;4995636;28;20083;-72
2021/05/30 11:15:41;;;;;;;5.55;3.60;;;20.90;65.90;;;;;;4996443;28;20034;-71
2021/05/30 11:18:06;;;;;;;5.88;3.30;;;20.90;67.00;;;;;;4991931;28;20053;-72
2021/05/30 11:20:46;;;;;;;6.07;3.42;;;20.90;65.90;;;;;;4999624;28;20026;-72
2021/05/30 11:23:13;;;;;;;5.65;3.38;;;20.90;67.10;;;;;;4992717;28;20022;-71
2021/05/30 11:25:59;;;;;;;6.43;3.53;;;20.80;67.00;;;;;;4987556;28;20423;-72
2021/05/30 11:28:28;;;;;;;4.50;3.35;;;21.00;64.70;;;;;;4993131;28;20034;-73
2021/05/30 11:30:59;;;;;;;5.32;3.13;;;21.00;65.80;;;;;;4991929;28;20379;-72
2021/05/30 11:33:25;;;;;;;4.93;3.13;;;21.00;64.50;;;;;;4998351;28;20482;-70
2021/05/30 11:35:52;;;;;;;7.10;3.63;;;21.00;65.10;;;;;;4993216;28;20030;-70
2021/05/30 11:38:33;;;;;;;5.68;3.33;;;21.00;67.50;;;;;;4989166;28;20026;-70
2021/05/30 11:41:08;;;;;;;5.20;2.90;;;21.10;66.40;;;;;;4996218;28;20111;-70
2021/05/30 11:43:34;;;;;;;4.38;3.25;;;21.10;68.60;;;;;;4995284;28;20066;-70
2021/05/30 11:46:02;;;;;;;4.63;3.25;;;21.10;65.50;;;;;;4970235;28;20420;-70
2021/05/30 11:48:29;;;;;;;4.60;3.20;;;21.10;62.70;;;;;;4979535;28;20026;-70
2021/05/30 11:50:55;;;;;;;4.70;3.13;;;21.00;64.50;;;;;;4979198;28;20026;-71
2021/05/30 11:53:34;;;;;;;5.63;3.00;;;20.90;62.30;;;;;;4992202;28;20475;-70
2021/05/30 11:56:02;;;;;;;4.22;2.72;;;20.90;63.00;;;;;;4988617;28;20129;-70
2021/05/30 11:58:28;;;;;;;5.60;2.90;;;20.90;61.70;;;;;;4991027;28;20034;-70
2021/05/30 12:00:54;;;;;;;6.70;3.10;;;20.80;60.80;;;;;;4989061;28;20031;-69
2021/05/30 12:03:20;;;;;;;5.22;3.03;;;20.80;62.70;;;;;;4988774;28;20034;-70
2021/05/30 12:05:46;;;;;;;4.45;2.90;;;20.90;62.90;;;;;;4991508;28;20033;-71
2021/05/30 12:08:21;;;;;;;5.88;3.13;;;20.90;64.60;;;;;;4992015;28;20034;-70
2021/05/30 12:10:57;;;;;;;4.97;3.13;;;21.10;63.80;;;;;;4989867;28;20113;-70
2021/05/30 12:13:37;;;;;;;4.57;2.90;;;21.30;61.90;;;;;;4994568;28;20057;-70
2021/05/30 12:16:21;;;;;;;5.18;2.92;;;21.30;59.00;;;;;;4997617;28;20030;-70
2021/05/30 12:18:50;;;;;;;4.05;2.88;;;21.40;62.20;;;;;;4992389;28;20499;-70
2021/05/30 12:21:15;;;;;;;4.78;2.97;;;21.50;64.00;;;;;;4995415;28;20072;-70
2021/05/30 12:23:43;;;;;;;5.15;2.67;;;21.50;62.60;;;;;;4973050;28;20046;-70
2021/05/30 12:26:12;;;;;;;6.15;3.40;;;21.70;61.90;;;;;;4995567;28;20207;-71
2021/05/30 12:28:41;;;;;;;4.63;2.90;;;21.80;61.10;;;;;;4988795;28;20053;-71
2021/05/30 12:31:17;;;;;;;5.65;3.20;;;21.90;61.10;;;;;;4989452;28;20442;-71
2021/05/30 12:34:02;;;;;;;5.05;3.13;;;22.10;62.90;;;;;;4991880;28;20035;-70
2021/05/30 12:36:50;;;;;;;4.25;2.95;;;22.20;60.80;;;;;;4989951;28;20059;-70
2021/05/30 12:39:26;;;;;;;4.50;2.92;;;22.30;60.10;;;;;;4992094;28;20113;-70
2021/05/30 12:42:04;;;;;;;4.93;3.15;;;22.50;60.70;;;;;;4991281;28;20528;-70
2021/05/30 12:44:53;;;;;;;4.85;3.10;;;22.60;56.90;;;;;;5006805;28;20038;-71
2021/05/30 12:47:31;;;;;;;4.85;2.90;;;22.80;62.40;;;;;;4986779;28;20045;-70
2021/05/30 12:49:58;;;;;;;4.80;2.75;;;22.80;57.60;;;;;;4996214;28;20017;-70
2021/05/30 12:52:24;;;;;;;5.78;3.13;;;23.00;58.70;;;;;;4996932;28;20022;-70